sensor_id;sensor_type;location;lat;lon;timestamp;temperature;humidity
57030;DHT22;42920;45.306;20.448;2023-05-07T00:02:06;410.20;2355.20
57030;DHT22;42920;45.306;20.448;2023-05-07T00:04:33;410.00;2355.20
57030;DHT22;42920;45.306;20.448;2023-05-07T00:07:02;409.90;2355.20
57030;DHT22;42920;45.306;20.448;2023-05-07T00:09:28;409.80;2355.20
57030;DHT22;42920;45.306;20.448;2023-05-07T00:11:54;409.80;2355.20
57030;DHT22;42920;45.306;20.448;2023-05-07T00:14:19;409.80;2355.20
57030;DHT22;42920;45.306;20.448;2023-05-07T00:16:46;409.70;2355.20
57030;DHT22;42920;45.306;20.448;2023-05-07T00:19:12;409.60;2355.20
57030;DHT22;42920;45.306;20.448;2023-05-07T00:21:37;384.90;2329.60
57030;DHT22;42920;45.306;20.448;2023-05-07T00:24:03;384.90;2329.60
57030;DHT22;42920;45.306;20.448;2023-05-07T00:26:29;409.60;2355.20
57030;DHT22;42920;45.306;20.448;2023-05-07T00:28:55;384.90;2329.60
57030;DHT22;42920;45.306;20.448;2023-05-07T00:31:21;384.90;2329.60
57030;DHT22;42920;45.306;20.448;2023-05-07T00:33:46;384.70;2329.60
57030;DHT22;42920;45.306;20.448;2023-05-07T00:36:12;384.80;2329.60
57030;DHT22;42920;45.306;20.448;2023-05-07T00:38:38;384.80;2329.60
57030;DHT22;42920;45.306;20.448;2023-05-07T00:41:03;384.90;2329.60
57030;DHT22;42920;45.306;20.448;2023-05-07T00:43:29;409.60;2355.20
57030;DHT22;42920;45.306;20.448;2023-05-07T00:45:55;384.90;2329.60
57030;DHT22;42920;45.306;20.448;2023-05-07T00:48:21;384.70;2329.60
57030;DHT22;42920;45.306;20.448;2023-05-07T00:50:47;384.50;2329.60
57030;DHT22;42920;45.306;20.448;2023-05-07T00:53:14;384.40;2329.60
57030;DHT22;42920;45.306;20.448;2023-05-07T00:55:39;384.40;2329.60
57030;DHT22;42920;45.306;20.448;2023-05-07T00:58:06;384.40;2329.60
57030;DHT22;42920;45.306;20.448;2023-05-07T01:00:32;384.30;2329.60
57030;DHT22;42920;45.306;20.448;2023-05-07T01:02:58;384.30;2329.60
57030;DHT22;42920;45.306;20.448;2023-05-07T01:05:24;384.40;2329.60
57030;DHT22;42920;45.306;20.448;2023-05-07T01:07:52;384.50;2329.60
57030;DHT22;42920;45.306;20.448;2023-05-07T01:10:19;384.50;2329.60
57030;DHT22;42920;45.306;20.448;2023-05-07T01:12:45;384.30;2329.60
57030;DHT22;42920;45.306;20.448;2023-05-07T01:15:12;384.10;2329.60
57030;DHT22;42920;45.306;20.448;2023-05-07T01:17:40;384.10;2329.60
57030;DHT22;42920;45.306;20.448;2023-05-07T01:20:06;384.00;2329.60
57030;DHT22;42920;45.306;20.448;2023-05-07T01:22:37;384.00;2329.60
57030;DHT22;42920;45.306;20.448;2023-05-07T01:25:04;384.10;2329.60
57030;DHT22;42920;45.306;20.448;2023-05-07T01:27:30;384.20;2329.60
57030;DHT22;42920;45.306;20.448;2023-05-07T01:29:56;384.30;2329.60
57030;DHT22;42920;45.306;20.448;2023-05-07T01:32:29;384.40;2329.60
57030;DHT22;42920;45.306;20.448;2023-05-07T01:34:58;384.60;2329.60
57030;DHT22;42920;45.306;20.448;2023-05-07T01:37:25;384.70;2329.60
57030;DHT22;42920;45.306;20.448;2023-05-07T01:39:52;384.70;2329.60
57030;DHT22;42920;45.306;20.448;2023-05-07T01:42:19;384.80;2329.60
57030;DHT22;42920;45.306;20.448;2023-05-07T01:44:45;384.90;2329.60
57030;DHT22;42920;45.306;20.448;2023-05-07T01:47:12;384.90;2329.60
57030;DHT22;42920;45.306;20.448;2023-05-07T01:49:39;384.90;2329.60
57030;DHT22;42920;45.306;20.448;2023-05-07T01:52:05;384.90;2329.60
57030;DHT22;42920;45.306;20.448;2023-05-07T01:54:31;384.70;2329.60
57030;DHT22;42920;45.306;20.448;2023-05-07T01:56:57;384.60;2329.60
57030;DHT22;42920;45.306;20.448;2023-05-07T01:59:22;384.60;2329.60
57030;DHT22;42920;45.306;20.448;2023-05-07T02:01:48;384.70;2329.60
57030;DHT22;42920;45.306;20.448;2023-05-07T02:04:14;384.70;2329.60
57030;DHT22;42920;45.306;20.448;2023-05-07T02:06:40;384.80;2329.60
57030;DHT22;42920;45.306;20.448;2023-05-07T02:09:05;384.70;2329.60
57030;DHT22;42920;45.306;20.448;2023-05-07T02:11:31;384.60;2329.60
57030;DHT22;42920;45.306;20.448;2023-05-07T02:13:57;384.60;2329.60
57030;DHT22;42920;45.306;20.448;2023-05-07T02:16:22;384.50;2329.60
57030;DHT22;42920;45.306;20.448;2023-05-07T02:18:49;384.50;2329.60
57030;DHT22;42920;45.306;20.448;2023-05-07T02:21:15;384.50;2329.60
57030;DHT22;42920;45.306;20.448;2023-05-07T02:23:40;384.50;2329.60
57030;DHT22;42920;45.306;20.448;2023-05-07T02:26:06;384.50;2329.60
57030;DHT22;42920;45.306;20.448;2023-05-07T02:28:32;384.40;2329.60
57030;DHT22;42920;45.306;20.448;2023-05-07T02:31:02;384.30;2329.60
57030;DHT22;42920;45.306;20.448;2023-05-07T02:33:28;384.20;2329.60
57030;DHT22;42920;45.306;20.448;2023-05-07T02:35:54;384.20;2329.60
57030;DHT22;42920;45.306;20.448;2023-05-07T02:38:19;384.10;2329.60
57030;DHT22;42920;45.306;20.448;2023-05-07T02:40:45;384.30;2329.60
57030;DHT22;42920;45.306;20.448;2023-05-07T02:43:11;384.40;2329.60
57030;DHT22;42920;45.306;20.448;2023-05-07T02:45:36;384.40;2329.60
57030;DHT22;42920;45.306;20.448;2023-05-07T02:48:03;384.40;2329.60
57030;DHT22;42920;45.306;20.448;2023-05-07T02:50:29;384.40;2329.60
57030;DHT22;42920;45.306;20.448;2023-05-07T02:52:55;384.40;2329.60
57030;DHT22;42920;45.306;20.448;2023-05-07T02:55:21;384.30;2329.60
57030;DHT22;42920;45.306;20.448;2023-05-07T02:57:47;384.20;2329.60
57030;DHT22;42920;45.306;20.448;2023-05-07T03:00:18;384.10;2329.60
57030;DHT22;42920;45.306;20.448;2023-05-07T03:02:44;384.10;2329.60
57030;DHT22;42920;45.306;20.448;2023-05-07T03:05:10;384.20;2329.60
57030;DHT22;42920;45.306;20.448;2023-05-07T03:07:36;384.30;2329.60
57030;DHT22;42920;45.306;20.448;2023-05-07T03:10:03;384.40;2329.60
57030;DHT22;42920;45.306;20.448;2023-05-07T03:12:29;384.40;2329.60
57030;DHT22;42920;45.306;20.448;2023-05-07T03:14:55;384.40;2329.60
57030;DHT22;42920;45.306;20.448;2023-05-07T03:17:21;384.40;2329.60
57030;DHT22;42920;45.306;20.448;2023-05-07T03:19:47;384.40;2329.60
57030;DHT22;42920;45.306;20.448;2023-05-07T03:22:13;384.50;2329.60
57030;DHT22;42920;45.306;20.448;2023-05-07T03:24:38;384.50;2329.60
57030;DHT22;42920;45.306;20.448;2023-05-07T03:27:04;384.40;2329.60
57030;DHT22;42920;45.306;20.448;2023-05-07T03:29:30;384.40;2329.60
57030;DHT22;42920;45.306;20.448;2023-05-07T03:31:55;384.40;2329.60
57030;DHT22;42920;45.306;20.448;2023-05-07T03:34:21;384.40;2329.60
57030;DHT22;42920;45.306;20.448;2023-05-07T03:36:51;384.40;2329.60
57030;DHT22;42920;45.306;20.448;2023-05-07T03:39:16;384.20;2329.60
57030;DHT22;42920;45.306;20.448;2023-05-07T03:41:42;384.20;2329.60
57030;DHT22;42920;45.306;20.448;2023-05-07T03:44:08;384.20;2329.60
57030;DHT22;42920;45.306;20.448;2023-05-07T03:46:34;384.20;2329.60
57030;DHT22;42920;45.306;20.448;2023-05-07T03:49:00;384.00;2329.60
57030;DHT22;42920;45.306;20.448;2023-05-07T03:51:25;384.10;2329.60
57030;DHT22;42920;45.306;20.448;2023-05-07T03:53:51;384.10;2329.60
57030;DHT22;42920;45.306;20.448;2023-05-07T03:56:22;384.00;2329.60
57030;DHT22;42920;45.306;20.448;2023-05-07T03:58:48;359.20;2329.60
57030;DHT22;42920;45.306;20.448;2023-05-07T04:01:14;359.20;2329.60
57030;DHT22;42920;45.306;20.448;2023-05-07T04:03:40;359.30;2329.60
57030;DHT22;42920;45.306;20.448;2023-05-07T04:06:05;384.00;2329.60
57030;DHT22;42920;45.306;20.448;2023-05-07T04:08:31;384.00;2329.60
57030;DHT22;42920;45.306;20.448;2023-05-07T04:10:58;384.10;2329.60
57030;DHT22;42920;45.306;20.448;2023-05-07T04:13:24;384.20;2329.60
57030;DHT22;42920;45.306;20.448;2023-05-07T04:15:50;384.20;2329.60
57030;DHT22;42920;45.306;20.448;2023-05-07T04:18:16;384.30;2329.60
57030;DHT22;42920;45.306;20.448;2023-05-07T04:20:42;384.40;2329.60
57030;DHT22;42920;45.306;20.448;2023-05-07T04:23:08;384.40;2329.60
57030;DHT22;42920;45.306;20.448;2023-05-07T04:25:34;384.50;2329.60
57030;DHT22;42920;45.306;20.448;2023-05-07T04:28:00;384.40;2329.60
57030;DHT22;42920;45.306;20.448;2023-05-07T04:30:25;384.40;2329.60
57030;DHT22;42920;45.306;20.448;2023-05-07T04:32:52;384.60;2329.60
57030;DHT22;42920;45.306;20.448;2023-05-07T04:35:18;384.40;2329.60
57030;DHT22;42920;45.306;20.448;2023-05-07T04:37:44;384.30;2329.60
57030;DHT22;42920;45.306;20.448;2023-05-07T04:40:10;384.20;2329.60
57030;DHT22;42920;45.306;20.448;2023-05-07T04:42:37;384.20;2329.60
57030;DHT22;42920;45.306;20.448;2023-05-07T04:45:03;384.10;2329.60
57030;DHT22;42920;45.306;20.448;2023-05-07T04:47:30;384.00;2329.60
57030;DHT22;42920;45.306;20.448;2023-05-07T04:49:57;384.10;2329.60
57030;DHT22;42920;45.306;20.448;2023-05-07T04:52:22;384.30;2329.60
57030;DHT22;42920;45.306;20.448;2023-05-07T04:54:48;384.40;2329.60
57030;DHT22;42920;45.306;20.448;2023-05-07T04:57:14;384.60;2329.60
57030;DHT22;42920;45.306;20.448;2023-05-07T04:59:39;384.70;2329.60
57030;DHT22;42920;45.306;20.448;2023-05-07T05:02:05;384.90;2329.60
57030;DHT22;42920;45.306;20.448;2023-05-07T05:04:31;409.60;2355.20
57030;DHT22;42920;45.306;20.448;2023-05-07T05:06:57;409.80;2355.20
57030;DHT22;42920;45.306;20.448;2023-05-07T05:09:23;409.90;2355.20
57030;DHT22;42920;45.306;20.448;2023-05-07T05:11:48;410.00;2355.20
57030;DHT22;42920;45.306;20.448;2023-05-07T05:14:14;410.20;2355.20
57030;DHT22;42920;45.306;20.448;2023-05-07T05:16:40;410.20;2355.20
57030;DHT22;42920;45.306;20.448;2023-05-07T05:19:05;410.30;2355.20
57030;DHT22;42920;45.306;20.448;2023-05-07T05:21:32;410.50;2355.20
57030;DHT22;42920;45.306;20.448;2023-05-07T05:23:58;435.20;2355.20
57030;DHT22;42920;45.306;20.448;2023-05-07T05:26:24;435.20;2355.20
57030;DHT22;42920;45.306;20.448;2023-05-07T05:28:49;435.30;2355.20
57030;DHT22;42920;45.306;20.448;2023-05-07T05:31:16;435.40;2355.20
57030;DHT22;42920;45.306;20.448;2023-05-07T05:33:42;435.50;2355.20
57030;DHT22;42920;45.306;20.448;2023-05-07T05:36:09;435.70;2355.20
57030;DHT22;42920;45.306;20.448;2023-05-07T05:38:36;435.70;2355.20
57030;DHT22;42920;45.306;20.448;2023-05-07T05:41:01;435.80;2355.20
57030;DHT22;42920;45.306;20.448;2023-05-07T05:43:27;435.90;2355.20
57030;DHT22;42920;45.306;20.448;2023-05-07T05:45:53;435.90;2355.20
57030;DHT22;42920;45.306;20.448;2023-05-07T05:48:19;436.10;2355.20
57030;DHT22;42920;45.306;20.448;2023-05-07T05:50:45;460.80;2380.80
57030;DHT22;42920;45.306;20.448;2023-05-07T05:53:10;460.90;2380.80
57030;DHT22;42920;45.306;20.448;2023-05-07T05:55:37;461.10;2380.80
57030;DHT22;42920;45.306;20.448;2023-05-07T05:58:02;461.20;2380.80
57030;DHT22;42920;45.306;20.448;2023-05-07T06:00:28;461.30;2380.80
57030;DHT22;42920;45.306;20.448;2023-05-07T06:02:54;461.40;2380.80
57030;DHT22;42920;45.306;20.448;2023-05-07T06:05:20;461.40;2380.80
57030;DHT22;42920;45.306;20.448;2023-05-07T06:07:46;461.50;2380.80
57030;DHT22;42920;45.306;20.448;2023-05-07T06:10:12;461.70;2380.80
57030;DHT22;42920;45.306;20.448;2023-05-07T06:12:37;486.40;2380.80
57030;DHT22;42920;45.306;20.448;2023-05-07T06:15:04;486.50;2380.80
57030;DHT22;42920;45.306;20.448;2023-05-07T06:17:29;486.50;2380.80
57030;DHT22;42920;45.306;20.448;2023-05-07T06:19:56;486.70;2380.80
57030;DHT22;42920;45.306;20.448;2023-05-07T06:22:21;486.70;2380.80
57030;DHT22;42920;45.306;20.448;2023-05-07T06:24:47;486.80;2380.80
57030;DHT22;42920;45.306;20.448;2023-05-07T06:27:13;486.90;2380.80
57030;DHT22;42920;45.306;20.448;2023-05-07T06:29:39;486.80;2355.20
57030;DHT22;42920;45.306;20.448;2023-05-07T06:32:08;487.00;2355.20
57030;DHT22;42920;45.306;20.448;2023-05-07T06:34:34;487.20;2355.20
57030;DHT22;42920;45.306;20.448;2023-05-07T06:37:00;487.30;2380.80
57030;DHT22;42920;45.306;20.448;2023-05-07T06:39:26;487.30;2304.00
57030;DHT22;42920;45.306;20.448;2023-05-07T06:41:52;487.30;2329.60
57030;DHT22;42920;45.306;20.448;2023-05-07T06:44:18;512.10;2329.60
57030;DHT22;42920;45.306;20.448;2023-05-07T06:46:44;512.10;2201.60
57030;DHT22;42920;45.306;20.448;2023-05-07T06:49:11;512.10;2150.40
57030;DHT22;42920;45.306;20.448;2023-05-07T06:51:37;512.10;2073.60
57030;DHT22;42920;45.306;20.448;2023-05-07T06:54:03;512.00;2099.20
57030;DHT22;42920;45.306;20.448;2023-05-07T06:56:30;512.00;2201.60
57030;DHT22;42920;45.306;20.448;2023-05-07T06:58:56;512.10;2150.40
57030;DHT22;42920;45.306;20.448;2023-05-07T07:01:22;512.30;2124.80
57030;DHT22;42920;45.306;20.448;2023-05-07T07:03:47;512.30;2124.80
57030;DHT22;42920;45.306;20.448;2023-05-07T07:06:14;512.50;2150.40
57030;DHT22;42920;45.306;20.448;2023-05-07T07:08:39;512.60;2099.20
57030;DHT22;42920;45.306;20.448;2023-05-07T07:11:06;512.90;2124.80
57030;DHT22;42920;45.306;20.448;2023-05-07T07:13:31;537.80;2176.00
57030;DHT22;42920;45.306;20.448;2023-05-07T07:15:57;537.80;2124.80
57030;DHT22;42920;45.306;20.448;2023-05-07T07:18:23;537.90;1996.80
57030;DHT22;42920;45.306;20.448;2023-05-07T07:20:49;537.90;1971.20
57030;DHT22;42920;45.306;20.448;2023-05-07T07:23:15;538.00;1971.20
57030;DHT22;42920;45.306;20.448;2023-05-07T07:25:40;538.20;1996.80
57030;DHT22;42920;45.306;20.448;2023-05-07T07:28:06;538.40;1971.20
57030;DHT22;42920;45.306;20.448;2023-05-07T07:30:32;563.20;2022.40
57030;DHT22;42920;45.306;20.448;2023-05-07T07:32:58;538.50;1894.40
57030;DHT22;42920;45.306;20.448;2023-05-07T07:35:29;563.30;1971.20
57030;DHT22;42920;45.306;20.448;2023-05-07T07:37:55;563.40;1843.20
57030;DHT22;42920;45.306;20.448;2023-05-07T07:40:20;563.50;1843.20
57030;DHT22;42920;45.306;20.448;2023-05-07T07:42:46;563.70;1868.80
57030;DHT22;42920;45.306;20.448;2023-05-07T07:45:12;563.80;1817.60
57030;DHT22;42920;45.306;20.448;2023-05-07T07:47:39;563.70;1766.40
57030;DHT22;42920;45.306;20.448;2023-05-07T07:50:05;563.70;1792.00
57030;DHT22;42920;45.306;20.448;2023-05-07T07:52:31;564.00;1792.00
57030;DHT22;42920;45.306;20.448;2023-05-07T07:54:57;563.90;1740.80
57030;DHT22;42920;45.306;20.448;2023-05-07T07:57:22;563.90;1740.80
57030;DHT22;42920;45.306;20.448;2023-05-07T07:59:48;564.10;1766.40
57030;DHT22;42920;45.306;20.448;2023-05-07T08:02:14;564.10;1740.80
57030;DHT22;42920;45.306;20.448;2023-05-07T08:04:40;564.10;1715.20
57030;DHT22;42920;45.306;20.448;2023-05-07T08:07:05;564.10;1715.20
57030;DHT22;42920;45.306;20.448;2023-05-07T08:09:31;564.10;1715.20
57030;DHT22;42920;45.306;20.448;2023-05-07T08:11:57;588.80;1664.00
57030;DHT22;42920;45.306;20.448;2023-05-07T08:14:23;588.80;1612.80
57030;DHT22;42920;45.306;20.448;2023-05-07T08:16:49;588.90;1638.40
57030;DHT22;42920;45.306;20.448;2023-05-07T08:19:14;589.00;1612.80
57030;DHT22;42920;45.306;20.448;2023-05-07T08:21:40;589.10;1612.80
57030;DHT22;42920;45.306;20.448;2023-05-07T08:24:06;589.10;1561.60
57030;DHT22;42920;45.306;20.448;2023-05-07T08:26:32;589.10;1587.20
57030;DHT22;42920;45.306;20.448;2023-05-07T08:28:57;589.10;1587.20
57030;DHT22;42920;45.306;20.448;2023-05-07T08:31:23;589.20;1612.80
57030;DHT22;42920;45.306;20.448;2023-05-07T08:33:50;589.20;1561.60
57030;DHT22;42920;45.306;20.448;2023-05-07T08:36:15;589.40;1587.20
57030;DHT22;42920;45.306;20.448;2023-05-07T08:38:41;589.40;1561.60
57030;DHT22;42920;45.306;20.448;2023-05-07T08:41:10;589.40;1561.60
57030;DHT22;42920;45.306;20.448;2023-05-07T08:43:36;589.40;1536.00
57030;DHT22;42920;45.306;20.448;2023-05-07T08:46:04;589.50;1536.00
57030;DHT22;42920;45.306;20.448;2023-05-07T08:48:31;589.50;1536.00
57030;DHT22;42920;45.306;20.448;2023-05-07T08:50:58;589.50;1536.00
57030;DHT22;42920;45.306;20.448;2023-05-07T08:53:24;589.60;1587.20
57030;DHT22;42920;45.306;20.448;2023-05-07T08:55:51;589.70;1561.60
57030;DHT22;42920;45.306;20.448;2023-05-07T08:58:18;589.70;1510.40
57030;DHT22;42920;45.306;20.448;2023-05-07T09:00:43;589.70;1536.00
57030;DHT22;42920;45.306;20.448;2023-05-07T09:03:09;614.50;1587.20
57030;DHT22;42920;45.306;20.448;2023-05-07T09:05:38;614.50;1536.00
57030;DHT22;42920;45.306;20.448;2023-05-07T09:08:04;614.50;1536.00
57030;DHT22;42920;45.306;20.448;2023-05-07T09:10:33;614.70;1510.40
57030;DHT22;42920;45.306;20.448;2023-05-07T09:12:59;614.70;1484.80
57030;DHT22;42920;45.306;20.448;2023-05-07T09:15:26;614.70;1484.80
57030;DHT22;42920;45.306;20.448;2023-05-07T09:17:52;614.80;1510.40
57030;DHT22;42920;45.306;20.448;2023-05-07T09:20:18;614.80;1459.20
57030;DHT22;42920;45.306;20.448;2023-05-07T09:22:43;614.90;1459.20
57030;DHT22;42920;45.306;20.448;2023-05-07T09:25:10;614.90;1459.20
57030;DHT22;42920;45.306;20.448;2023-05-07T09:27:35;615.10;1459.20
57030;DHT22;42920;45.306;20.448;2023-05-07T09:30:05;615.20;1459.20
57030;DHT22;42920;45.306;20.448;2023-05-07T09:32:35;615.30;1484.80
57030;DHT22;42920;45.306;20.448;2023-05-07T09:35:01;640.20;1484.80
57030;DHT22;42920;45.306;20.448;2023-05-07T09:37:31;640.20;1433.60
57030;DHT22;42920;45.306;20.448;2023-05-07T09:39:58;640.40;1459.20
57030;DHT22;42920;45.306;20.448;2023-05-07T09:42:24;640.40;1433.60
57030;DHT22;42920;45.306;20.448;2023-05-07T09:44:52;640.60;1408.00
57030;DHT22;42920;45.306;20.448;2023-05-07T09:47:19;640.70;1408.00
57030;DHT22;42920;45.306;20.448;2023-05-07T09:49:48;640.70;1382.40
57030;DHT22;42920;45.306;20.448;2023-05-07T09:52:14;640.60;1356.80
57030;DHT22;42920;45.306;20.448;2023-05-07T09:54:40;640.70;1331.20
57030;DHT22;42920;45.306;20.448;2023-05-07T09:57:10;640.70;1382.40
57030;DHT22;42920;45.306;20.448;2023-05-07T09:59:37;640.60;1356.80
57030;DHT22;42920;45.306;20.448;2023-05-07T10:02:04;640.70;1356.80
57030;DHT22;42920;45.306;20.448;2023-05-07T10:04:31;665.60;1408.00
57030;DHT22;42920;45.306;20.448;2023-05-07T10:06:57;665.90;1382.40
57030;DHT22;42920;45.306;20.448;2023-05-07T10:09:24;666.00;1356.80
57030;DHT22;42920;45.306;20.448;2023-05-07T10:11:51;665.90;1356.80
57030;DHT22;42920;45.306;20.448;2023-05-07T10:14:18;666.00;1331.20
57030;DHT22;42920;45.306;20.448;2023-05-07T10:16:45;666.00;1280.00
57030;DHT22;42920;45.306;20.448;2023-05-07T10:19:11;665.90;1280.00
57030;DHT22;42920;45.306;20.448;2023-05-07T10:21:39;665.90;1331.20
57030;DHT22;42920;45.306;20.448;2023-05-07T10:24:16;666.20;1356.80
57030;DHT22;42920;45.306;20.448;2023-05-07T10:26:47;691.30;1305.60
57030;DHT22;42920;45.306;20.448;2023-05-07T10:29:38;666.30;1280.00
57030;DHT22;42920;45.306;20.448;2023-05-07T10:32:28;666.40;1356.80
57030;DHT22;42920;45.306;20.448;2023-05-07T10:34:57;666.20;1331.20
57030;DHT22;42920;45.306;20.448;2023-05-07T10:37:25;665.90;1305.60
57030;DHT22;42920;45.306;20.448;2023-05-07T10:39:51;665.60;1356.80
57030;DHT22;42920;45.306;20.448;2023-05-07T10:42:17;665.60;1356.80
57030;DHT22;42920;45.306;20.448;2023-05-07T10:44:43;640.90;1305.60
57030;DHT22;42920;45.306;20.448;2023-05-07T10:47:11;665.70;1356.80
57030;DHT22;42920;45.306;20.448;2023-05-07T10:52:31;666.00;1356.80
57030;DHT22;42920;45.306;20.448;2023-05-07T10:55:19;665.70;1356.80
57030;DHT22;42920;45.306;20.448;2023-05-07T10:57:46;665.60;1356.80
57030;DHT22;42920;45.306;20.448;2023-05-07T11:05:26;665.90;1280.00
57030;DHT22;42920;45.306;20.448;2023-05-07T11:07:56;665.80;1356.80
57030;DHT22;42920;45.306;20.448;2023-05-07T11:10:22;665.70;1331.20
57030;DHT22;42920;45.306;20.448;2023-05-07T11:12:51;665.70;1305.60
57030;DHT22;42920;45.306;20.448;2023-05-07T11:15:41;665.60;1331.20
57030;DHT22;42920;45.306;20.448;2023-05-07T11:18:09;665.80;1305.60
57030;DHT22;42920;45.306;20.448;2023-05-07T11:20:55;665.90;1305.60
57030;DHT22;42920;45.306;20.448;2023-05-07T11:26:06;666.30;1254.40
57030;DHT22;42920;45.306;20.448;2023-05-07T11:28:40;666.50;1228.80
57030;DHT22;42920;45.306;20.448;2023-05-07T11:31:07;691.20;1203.20
57030;DHT22;42920;45.306;20.448;2023-05-07T11:33:34;691.20;1228.80
57030;DHT22;42920;45.306;20.448;2023-05-07T11:36:02;691.20;1228.80
57030;DHT22;42920;45.306;20.448;2023-05-07T11:38:29;666.50;1228.80
57030;DHT22;42920;45.306;20.448;2023-05-07T11:40:59;666.30;1228.80
57030;DHT22;42920;45.306;20.448;2023-05-07T11:43:26;666.50;1228.80
57030;DHT22;42920;45.306;20.448;2023-05-07T11:45:52;691.30;1254.40
57030;DHT22;42920;45.306;20.448;2023-05-07T11:48:18;691.40;1280.00
57030;DHT22;42920;45.306;20.448;2023-05-07T11:50:54;691.30;1228.80
57030;DHT22;42920;45.306;20.448;2023-05-07T11:53:25;691.20;1203.20
57030;DHT22;42920;45.306;20.448;2023-05-07T11:55:57;691.40;1228.80
57030;DHT22;42920;45.306;20.448;2023-05-07T11:58:24;691.60;1203.20
57030;DHT22;42920;45.306;20.448;2023-05-07T12:00:54;691.60;1254.40
57030;DHT22;42920;45.306;20.448;2023-05-07T12:03:20;691.70;1228.80
57030;DHT22;42920;45.306;20.448;2023-05-07T12:05:47;692.10;1228.80
57030;DHT22;42920;45.306;20.448;2023-05-07T12:08:20;716.90;1203.20
57030;DHT22;42920;45.306;20.448;2023-05-07T12:10:50;717.10;1152.00
57030;DHT22;42920;45.306;20.448;2023-05-07T12:13:21;717.40;1126.40
57030;DHT22;42920;45.306;20.448;2023-05-07T12:15:54;717.40;1152.00
57030;DHT22;42920;45.306;20.448;2023-05-07T12:18:21;717.20;1177.60
57030;DHT22;42920;45.306;20.448;2023-05-07T12:20:47;717.30;1126.40
57030;DHT22;42920;45.306;20.448;2023-05-07T12:23:13;717.50;1126.40
57030;DHT22;42920;45.306;20.448;2023-05-07T12:25:40;742.40;1126.40
57030;DHT22;42920;45.306;20.448;2023-05-07T12:28:15;742.40;1152.00
57030;DHT22;42920;45.306;20.448;2023-05-07T12:30:43;717.70;1100.80
57030;DHT22;42920;45.306;20.448;2023-05-07T12:33:09;717.50;1100.80
57030;DHT22;42920;45.306;20.448;2023-05-07T12:35:39;717.40;1075.20
57030;DHT22;42920;45.306;20.448;2023-05-07T12:38:13;717.20;1126.40
57030;DHT22;42920;45.306;20.448;2023-05-07T12:40:42;717.20;1177.60
57030;DHT22;42920;45.306;20.448;2023-05-07T12:43:18;717.20;1152.00
57030;DHT22;42920;45.306;20.448;2023-05-07T12:45:45;716.90;1203.20
57030;DHT22;42920;45.306;20.448;2023-05-07T12:48:12;716.90;1177.60
57030;DHT22;42920;45.306;20.448;2023-05-07T12:50:37;692.10;1177.60
57030;DHT22;42920;45.306;20.448;2023-05-07T12:53:04;717.10;1152.00
57030;DHT22;42920;45.306;20.448;2023-05-07T12:55:54;717.20;1126.40
57030;DHT22;42920;45.306;20.448;2023-05-07T12:58:32;717.50;1152.00
57030;DHT22;42920;45.306;20.448;2023-05-07T13:01:00;717.50;1126.40
57030;DHT22;42920;45.306;20.448;2023-05-07T13:03:32;717.30;1126.40
57030;DHT22;42920;45.306;20.448;2023-05-07T13:06:00;717.10;1152.00
57030;DHT22;42920;45.306;20.448;2023-05-07T13:08:35;717.40;1177.60
57030;DHT22;42920;45.306;20.448;2023-05-07T13:11:02;717.50;1152.00
57030;DHT22;42920;45.306;20.448;2023-05-07T13:13:32;717.50;1126.40
57030;DHT22;42920;45.306;20.448;2023-05-07T13:15:58;717.10;1152.00
57030;DHT22;42920;45.306;20.448;2023-05-07T13:18:25;717.20;1126.40
57030;DHT22;42920;45.306;20.448;2023-05-07T13:20:52;716.90;1228.80
57030;DHT22;42920;45.306;20.448;2023-05-07T13:23:17;717.20;1177.60
57030;DHT22;42920;45.306;20.448;2023-05-07T13:25:43;717.30;1126.40
57030;DHT22;42920;45.306;20.448;2023-05-07T13:28:09;717.50;1126.40
57030;DHT22;42920;45.306;20.448;2023-05-07T13:30:34;717.40;1152.00
57030;DHT22;42920;45.306;20.448;2023-05-07T13:33:00;717.20;1126.40
57030;DHT22;42920;45.306;20.448;2023-05-07T13:35:26;717.10;1126.40
57030;DHT22;42920;45.306;20.448;2023-05-07T13:37:52;717.20;1126.40
57030;DHT22;42920;45.306;20.448;2023-05-07T13:40:20;717.30;1126.40
57030;DHT22;42920;45.306;20.448;2023-05-07T13:42:47;717.50;1100.80
57030;DHT22;42920;45.306;20.448;2023-05-07T13:45:13;717.70;1100.80
57030;DHT22;42920;45.306;20.448;2023-05-07T13:47:42;717.60;1075.20
57030;DHT22;42920;45.306;20.448;2023-05-07T13:50:10;717.50;1049.60
57030;DHT22;42920;45.306;20.448;2023-05-07T13:52:40;717.20;1100.80
57030;DHT22;42920;45.306;20.448;2023-05-07T13:55:06;717.10;1075.20
57030;DHT22;42920;45.306;20.448;2023-05-07T13:57:32;717.10;1100.80
57030;DHT22;42920;45.306;20.448;2023-05-07T13:59:58;716.90;1100.80
57030;DHT22;42920;45.306;20.448;2023-05-07T14:02:24;716.80;1100.80
57030;DHT22;42920;45.306;20.448;2023-05-07T14:04:49;716.80;1100.80
57030;DHT22;42920;45.306;20.448;2023-05-07T14:07:15;692.10;1049.60
57030;DHT22;42920;45.306;20.448;2023-05-07T14:09:41;716.90;1075.20
57030;DHT22;42920;45.306;20.448;2023-05-07T14:12:07;716.90;1075.20
57030;DHT22;42920;45.306;20.448;2023-05-07T14:14:33;716.80;1100.80
57030;DHT22;42920;45.306;20.448;2023-05-07T14:16:58;692.10;1075.20
57030;DHT22;42920;45.306;20.448;2023-05-07T14:19:24;692.10;1049.60
57030;DHT22;42920;45.306;20.448;2023-05-07T14:21:50;716.80;1049.60
57030;DHT22;42920;45.306;20.448;2023-05-07T14:24:16;716.90;1049.60
57030;DHT22;42920;45.306;20.448;2023-05-07T14:26:41;716.80;1075.20
57030;DHT22;42920;45.306;20.448;2023-05-07T14:29:07;716.80;1075.20
57030;DHT22;42920;45.306;20.448;2023-05-07T14:31:32;692.10;1049.60
57030;DHT22;42920;45.306;20.448;2023-05-07T14:33:59;692.10;1075.20
57030;DHT22;42920;45.306;20.448;2023-05-07T14:36:25;691.90;1024.00
57030;DHT22;42920;45.306;20.448;2023-05-07T14:38:55;692.10;1049.60
57030;DHT22;42920;45.306;20.448;2023-05-07T14:41:24;692.10;1049.60
57030;DHT22;42920;45.306;20.448;2023-05-07T14:43:50;716.80;1049.60
57030;DHT22;42920;45.306;20.448;2023-05-07T14:46:19;716.90;1075.20